Time;durP1;ratioP1;P1;durP2;ratioP2;P2;SDS_P1;SDS_P2;PMS_P1;PMS_P2;Temp;Humidity;BMP_temperature;BMP_pressure;BME280_temperature;BME280_humidity;BME280_pressure;Samples;Min_cycle;Max_cycle;Signal;HPM_P1;HPM_P2
2022/07/28 00:00:32;;;;;;;;;5.00;5.00;;;;;;;;5209863;28;8781;-77
2022/07/28 00:03:04;;;;;;;;;5.00;5.00;;;;;;;;5190906;28;8805;-76
2022/07/28 00:05:35;;;;;;;;;5.00;5.00;;;;;;;;5173895;28;8890;-76
2022/07/28 00:08:08;;;;;;;;;5.50;5.50;;;;;;;;5157990;28;8883;-77
2022/07/28 00:10:40;;;;;;;;;5.50;5.50;;;;;;;;5173571;28;8880;-77
2022/07/28 00:13:12;;;;;;;;;2.00;2.00;;;;;;;;5174177;28;8808;-77
2022/07/28 00:15:43;;;;;;;;;2.50;2.50;;;;;;;;5174114;28;8773;-77
2022/07/28 00:18:14;;;;;;;;;4.00;4.00;;;;;;;;5190402;28;8927;-77
2022/07/28 00:20:45;;;;;;;;;4.00;4.00;;;;;;;;5174650;28;8769;-77
2022/07/28 00:23:35;;;;;;;;;4.75;4.75;;;;;;;;5190749;28;8922;-77
2022/07/28 00:26:07;;;;;;;;;3.50;3.50;;;;;;;;5167151;28;8811;-78
2022/07/28 00:28:39;;;;;;;;;5.75;5.75;;;;;;;;5169687;28;8803;-79
2022/07/28 00:31:10;;;;;;;;;4.25;4.25;;;;;;;;5169654;28;8803;-77
2022/07/28 00:34:00;;;;;;;;;5.75;5.75;;;;;;;;5169803;28;8809;-76
2022/07/28 00:36:31;;;;;;;;;6.75;6.75;;;;;;;;5170703;28;8798;-75
2022/07/28 00:39:03;;;;;;;;;4.00;4.00;;;;;;;;5174700;28;8811;-76
2022/07/28 00:41:35;;;;;;;;;5.25;5.25;;;;;;;;5154364;28;8845;-76
2022/07/28 00:44:07;;;;;;;;;3.25;3.25;;;;;;;;5153312;28;8811;-76
2022/07/28 00:46:39;;;;;;;;;4.00;4.00;;;;;;;;5169272;28;8833;-74
2022/07/28 00:49:13;;;;;;;;;4.75;4.75;;;;;;;;5153055;28;8791;-73
2022/07/28 00:51:45;;;;;;;;;6.25;6.25;;;;;;;;5175710;28;9500;-74
2022/07/28 00:54:35;;;;;;;;;9.00;9.00;;;;;;;;5176423;28;8808;-76
2022/07/28 00:57:07;;;;;;;;;6.00;6.00;;;;;;;;5165104;28;8778;-75
2022/07/28 00:59:57;;;;;;;;;4.75;4.75;;;;;;;;5216502;28;8914;-75
2022/07/28 01:02:28;;;;;;;;;6.75;6.75;;;;;;;;5173433;28;8777;-74
2022/07/28 01:04:59;;;;;;;;;9.50;9.50;;;;;;;;5189346;28;8972;-74
2022/07/28 01:07:35;;;;;;;;;8.50;8.50;;;;;;;;5155727;28;8789;-74
2022/07/28 01:10:22;;;;;;;;;10.00;9.75;;;;;;;;5173352;28;8926;-74
2022/07/28 01:13:11;;;;;;;;;7.25;7.25;;;;;;;;5173547;28;8793;-73
2022/07/28 01:15:56;;;;;;;;;8.00;8.00;;;;;;;;5205701;28;8801;-74
2022/07/28 01:18:53;;;;;;;;;5.75;5.75;;;;;;;;5172872;28;8793;-73
2022/07/28 01:21:27;;;;;;;;;8.00;8.00;;;;;;;;5149076;28;8834;-74
2022/07/28 01:24:04;;;;;;;;;7.25;7.25;;;;;;;;5168776;28;8815;-75
2022/07/28 01:26:50;;;;;;;;;6.00;6.00;;;;;;;;5168854;28;8826;-75
2022/07/28 01:29:57;;;;;;;;;6.00;6.00;;;;;;;;5169126;28;8783;-76
2022/07/28 01:32:57;;;;;;;;;5.25;5.25;;;;;;;;5116671;28;8811;-76
2022/07/28 01:35:42;;;;;;;;;0.75;0.75;;;;;;;;5185695;28;8785;-74
2022/07/28 01:38:16;;;;;;;;;3.00;3.00;;;;;;;;5171207;28;8795;-75
2022/07/28 01:40:50;;;;;;;;;4.00;4.00;;;;;;;;5168322;28;8817;-75
2022/07/28 01:43:23;;;;;;;;;62.40;50.80;;;;;;;;5151854;28;8805;-74
2022/07/28 01:45:56;;;;;;;;;17.20;17.00;;;;;;;;5152318;28;8802;-74
2022/07/28 01:48:46;;;;;;;;;82.40;77.80;;;;;;;;5170518;28;8877;-74
2022/07/28 01:51:18;;;;;;;;;63.00;51.60;;;;;;;;5188705;28;9574;-75
2022/07/28 01:53:51;;;;;;;;;76.40;72.80;;;;;;;;5200285;28;8795;-73
2022/07/28 01:56:24;;;;;;;;;62.00;51.20;;;;;;;;5175429;28;8797;-74
2022/07/28 01:58:57;;;;;;;;;30.60;30.00;;;;;;;;5159423;28;9623;-73
2022/07/28 02:01:30;;;;;;;;;10.25;10.25;;;;;;;;5152055;28;8797;-74
2022/07/28 02:04:05;;;;;;;;;88.00;84.40;;;;;;;;5136520;28;8929;-74
2022/07/28 02:06:38;;;;;;;;;83.60;75.60;;;;;;;;5179166;28;8778;-74
2022/07/28 02:09:11;;;;;;;;;63.80;52.40;;;;;;;;5159221;28;8799;-74
2022/07/28 02:11:45;;;;;;;;;38.80;34.40;;;;;;;;5183021;28;8794;-73
2022/07/28 02:14:18;;;;;;;;;6.75;6.75;;;;;;;;5165470;28;8826;-73
2022/07/28 02:17:09;;;;;;;;;3.75;3.75;;;;;;;;5184968;28;8779;-74
2022/07/28 02:19:41;;;;;;;;;4.00;4.00;;;;;;;;5174991;28;8915;-73
2022/07/28 02:22:13;;;;;;;;;5.00;5.00;;;;;;;;5188203;28;8777;-74
2022/07/28 02:24:45;;;;;;;;;4.00;4.00;;;;;;;;5187973;28;8829;-74
2022/07/28 02:27:21;;;;;;;;;4.00;4.00;;;;;;;;5171363;28;8792;-74
2022/07/28 02:30:00;;;;;;;;;5.00;5.00;;;;;;;;5172077;28;9639;-73
2022/07/28 02:32:47;;;;;;;;;6.00;6.00;;;;;;;;5155450;28;8789;-74
2022/07/28 02:35:18;;;;;;;;;22.80;22.80;;;;;;;;5171444;28;8942;-74
2022/07/28 02:37:56;;;;;;;;;27.00;27.00;;;;;;;;5187273;28;8788;-74
2022/07/28 02:40:32;;;;;;;;;13.50;13.50;;;;;;;;5167477;28;8788;-73
2022/07/28 02:43:07;;;;;;;;;36.60;33.60;;;;;;;;5151333;28;9492;-74
2022/07/28 02:45:40;;;;;;;;;26.40;26.40;;;;;;;;5150919;28;8803;-74
2022/07/28 02:48:14;;;;;;;;;37.20;34.20;;;;;;;;5135270;28;8775;-74
2022/07/28 02:50:45;;;;;;;;;18.00;18.00;;;;;;;;5161048;28;8799;-73
2022/07/28 02:53:17;;;;;;;;;8.00;8.00;;;;;;;;5185999;28;8800;-73
2022/07/28 02:55:49;;;;;;;;;6.75;6.50;;;;;;;;5187484;28;8781;-73
2022/07/28 02:58:21;;;;;;;;;6.25;6.25;;;;;;;;5170961;28;8793;-73
2022/07/28 03:00:53;;;;;;;;;2.50;2.50;;;;;;;;5171420;28;9503;-73
2022/07/28 03:03:25;;;;;;;;;5.75;5.75;;;;;;;;5166994;28;8801;-75
2022/07/28 03:05:57;;;;;;;;;4.25;4.25;;;;;;;;5168674;28;8807;-74
2022/07/28 03:08:28;;;;;;;;;5.00;5.00;;;;;;;;5187924;28;9649;-74
2022/07/28 03:11:07;;;;;;;;;5.75;5.75;;;;;;;;5150813;28;8783;-74
2022/07/28 03:13:38;;;;;;;;;5.75;5.75;;;;;;;;5150904;28;8783;-74
2022/07/28 03:16:10;;;;;;;;;10.50;10.50;;;;;;;;5150944;28;8791;-73
2022/07/28 03:18:59;;;;;;;;;6.00;6.00;;;;;;;;5166529;28;8921;-73
2022/07/28 03:21:51;;;;;;;;;11.25;11.25;;;;;;;;5182686;28;9578;-75
2022/07/28 03:24:24;;;;;;;;;33.80;32.20;;;;;;;;5166468;28;8799;-74
2022/07/28 03:27:02;;;;;;;;;31.00;30.40;;;;;;;;5187321;28;8791;-74
2022/07/28 03:29:33;;;;;;;;;30.00;29.80;;;;;;;;5186879;28;8913;-75
2022/07/28 03:32:05;;;;;;;;;26.80;26.80;;;;;;;;5186651;28;8796;-75
2022/07/28 03:34:40;;;;;;;;;38.20;34.80;;;;;;;;5153779;28;8925;-74
2022/07/28 03:37:32;;;;;;;;;33.20;32.00;;;;;;;;5190387;28;8775;-74
2022/07/28 03:40:04;;;;;;;;;44.60;38.20;;;;;;;;5174139;28;9543;-75
2022/07/28 03:42:37;;;;;;;;;39.60;35.40;;;;;;;;5190208;28;9679;-74
2022/07/28 03:45:09;;;;;;;;;40.80;35.80;;;;;;;;5190626;28;8805;-74
2022/07/28 03:47:58;;;;;;;;;26.50;25.50;;;;;;;;5193344;28;9531;-75
2022/07/28 03:50:48;;;;;;;;;18.75;18.75;;;;;;;;5167789;28;8830;-74
2022/07/28 03:53:20;;;;;;;;;16.00;15.25;;;;;;;;5154248;28;8795;-75
2022/07/28 03:55:52;;;;;;;;;22.50;21.00;;;;;;;;5186578;28;8803;-75
2022/07/28 03:58:26;;;;;;;;;153.75;128.75;;;;;;;;5153899;28;8787;-75
2022/07/28 04:00:58;;;;;;;;;27.20;25.60;;;;;;;;5159401;28;8801;-72
2022/07/28 04:03:31;;;;;;;;;11.00;11.00;;;;;;;;5180482;28;8807;-72
2022/07/28 04:06:03;;;;;;;;;10.00;10.00;;;;;;;;5154122;28;8938;-72
2022/07/28 04:08:34;;;;;;;;;9.00;9.00;;;;;;;;5169762;28;8830;-73
2022/07/28 04:11:06;;;;;;;;;7.50;7.50;;;;;;;;5169754;28;8891;-73
2022/07/28 04:13:37;;;;;;;;;8.00;8.00;;;;;;;;5157352;28;8908;-73
2022/07/28 04:16:08;;;;;;;;;9.75;9.75;;;;;;;;5190720;28;8788;-73
2022/07/28 04:18:40;;;;;;;;;12.00;12.00;;;;;;;;5190286;28;8797;-74
2022/07/28 04:21:11;;;;;;;;;15.50;15.50;;;;;;;;5164248;28;8795;-74
2022/07/28 04:23:42;;;;;;;;;14.75;14.75;;;;;;;;5186679;28;8795;-73
2022/07/28 04:26:13;;;;;;;;;12.75;12.75;;;;;;;;5153180;28;8806;-73
2022/07/28 04:29:03;;;;;;;;;13.50;13.50;;;;;;;;5155842;28;8791;-73
2022/07/28 04:31:53;;;;;;;;;14.25;14.25;;;;;;;;5173488;28;8839;-72
2022/07/28 04:34:24;;;;;;;;;14.00;14.00;;;;;;;;5155168;28;8810;-73
2022/07/28 04:36:55;;;;;;;;;16.50;16.50;;;;;;;;5169774;28;8795;-73
2022/07/28 04:39:27;;;;;;;;;18.50;18.50;;;;;;;;5153940;28;8922;-73
2022/07/28 04:41:58;;;;;;;;;18.75;18.75;;;;;;;;5187959;28;8837;-73
2022/07/28 04:44:29;;;;;;;;;22.25;21.50;;;;;;;;5168871;28;8849;-73
2022/07/28 04:47:00;;;;;;;;;22.25;22.25;;;;;;;;5137171;28;8800;-72
2022/07/28 04:49:31;;;;;;;;;28.00;28.00;;;;;;;;5152819;28;8783;-72
2022/07/28 04:52:03;;;;;;;;;27.60;26.00;;;;;;;;5170123;28;8791;-73
2022/07/28 04:54:35;;;;;;;;;20.00;20.00;;;;;;;;5169032;28;9580;-73
2022/07/28 04:57:07;;;;;;;;;19.25;19.25;;;;;;;;5184823;28;8816;-72
2022/07/28 04:59:38;;;;;;;;;18.25;18.25;;;;;;;;5173304;28;8789;-78
2022/07/28 05:02:11;;;;;;;;;15.50;15.50;;;;;;;;5173644;28;8795;-73
2022/07/28 05:04:42;;;;;;;;;18.25;18.25;;;;;;;;5172477;28;8895;-73
2022/07/28 05:07:13;;;;;;;;;10.50;10.50;;;;;;;;5206152;28;8789;-73
2022/07/28 05:09:44;;;;;;;;;6.00;6.00;;;;;;;;5204536;28;8938;-73
2022/07/28 05:12:16;;;;;;;;;3.75;3.75;;;;;;;;5171510;28;8832;-73
2022/07/28 05:14:49;;;;;;;;;5.00;5.00;;;;;;;;5171102;28;8788;-73
2022/07/28 05:17:20;;;;;;;;;5.50;5.50;;;;;;;;5187140;28;8915;-74
2022/07/28 05:19:52;;;;;;;;;3.25;3.25;;;;;;;;5171049;28;8855;-75
2022/07/28 05:22:23;;;;;;;;;4.75;4.75;;;;;;;;5186731;28;8801;-73
2022/07/28 05:24:54;;;;;;;;;1.25;1.25;;;;;;;;5187091;28;8952;-73
2022/07/28 05:27:25;;;;;;;;;32.75;31.00;;;;;;;;5170650;28;8825;-73
2022/07/28 05:29:56;;;;;;;;;13.00;13.00;;;;;;;;5185624;28;8805;-73
2022/07/28 05:32:27;;;;;;;;;3.75;3.75;;;;;;;;5186841;28;8927;-72
2022/07/28 05:34:59;;;;;;;;;3.25;3.25;;;;;;;;5170581;28;8773;-73
2022/07/28 05:37:34;;;;;;;;;3.75;3.75;;;;;;;;5186859;28;9536;-72
2022/07/28 05:40:10;;;;;;;;;3.00;3.00;;;;;;;;5170674;28;8813;-76
2022/07/28 05:42:42;;;;;;;;;2.50;2.50;;;;;;;;5170256;28;8821;-73
2022/07/28 05:45:33;;;;;;;;;4.50;4.50;;;;;;;;5186577;28;8816;-74
2022/07/28 05:48:23;;;;;;;;;12.25;12.25;;;;;;;;5177628;28;9613;-72
2022/07/28 05:50:54;;;;;;;;;2.00;2.00;;;;;;;;5202953;28;8798;-73
2022/07/28 05:53:26;;;;;;;;;2.75;2.75;;;;;;;;5160043;28;8797;-74
2022/07/28 05:55:58;;;;;;;;;2.00;2.00;;;;;;;;5177409;28;8789;-73
2022/07/28 05:58:29;;;;;;;;;4.00;4.00;;;;;;;;5172152;28;9586;-73
2022/07/28 06:01:01;;;;;;;;;2.00;2.00;;;;;;;;5195477;28;8849;-73
2022/07/28 06:03:52;;;;;;;;;4.00;4.00;;;;;;;;5179621;28;8845;-72
2022/07/28 06:06:23;;;;;;;;;3.00;3.00;;;;;;;;5205938;28;8867;-73
2022/07/28 06:08:54;;;;;;;;;3.25;3.25;;;;;;;;5155504;28;8789;-73
2022/07/28 06:11:25;;;;;;;;;4.50;4.50;;;;;;;;5188109;28;9484;-71
2022/07/28 06:13:56;;;;;;;;;2.25;2.25;;;;;;;;5187767;28;9536;-74
2022/07/28 06:16:27;;;;;;;;;3.00;3.00;;;;;;;;5171354;28;9674;-73
2022/07/28 06:18:59;;;;;;;;;3.75;3.75;;;;;;;;5188047;28;8796;-73
2022/07/28 06:21:31;;;;;;;;;2.00;2.00;;;;;;;;5155527;28;8931;-73
2022/07/28 06:24:03;;;;;;;;;2.75;2.75;;;;;;;;5169614;28;8903;-73
2022/07/28 06:26:38;;;;;;;;;2.75;2.75;;;;;;;;5142396;28;8815;-73
2022/07/28 06:29:10;;;;;;;;;3.00;3.00;;;;;;;;5164964;28;8797;-73
2022/07/28 06:31:41;;;;;;;;;6.00;6.00;;;;;;;;5171381;28;8788;-72
2022/07/28 06:34:12;;;;;;;;;7.25;7.25;;;;;;;;5170958;28;8801;-73
2022/07/28 06:36:43;;;;;;;;;3.25;3.25;;;;;;;;5154954;28;8843;-72
2022/07/28 06:39:15;;;;;;;;;3.50;3.50;;;;;;;;5171302;28;8811;-73
2022/07/28 06:41:46;;;;;;;;;3.25;3.25;;;;;;;;5171022;28;8829;-72
2022/07/28 06:44:18;;;;;;;;;3.25;3.25;;;;;;;;5170843;28;8836;-72
2022/07/28 06:46:49;;;;;;;;;3.00;3.00;;;;;;;;5171218;28;8800;-73
2022/07/28 06:49:20;;;;;;;;;2.25;2.25;;;;;;;;5170474;28;8805;-73
2022/07/28 06:52:10;;;;;;;;;4.25;4.25;;;;;;;;5167387;28;8827;-73
2022/07/28 06:55:00;;;;;;;;;4.25;4.25;;;;;;;;5171881;28;9556;-73
2022/07/28 06:57:35;;;;;;;;;4.00;4.00;;;;;;;;5187052;28;8810;-73
2022/07/28 07:00:07;;;;;;;;;3.25;3.25;;;;;;;;5186786;28;8820;-73
2022/07/28 07:02:56;;;;;;;;;3.25;3.25;;;;;;;;5173482;28;8812;-73
2022/07/28 07:05:30;;;;;;;;;2.00;2.00;;;;;;;;5159533;28;8834;-72
2022/07/28 07:08:02;;;;;;;;;4.00;4.00;;;;;;;;5168831;28;8793;-73
2022/07/28 07:10:34;;;;;;;;;2.50;2.50;;;;;;;;5198930;28;8775;-72
2022/07/28 07:13:06;;;;;;;;;16.50;16.50;;;;;;;;5171015;28;8789;-72
2022/07/28 07:15:37;;;;;;;;;5.00;5.00;;;;;;;;5186939;28;8781;-72
2022/07/28 07:18:08;;;;;;;;;4.00;4.00;;;;;;;;5154483;28;8800;-73
2022/07/28 07:20:39;;;;;;;;;3.00;3.00;;;;;;;;5186070;28;8785;-72
2022/07/28 07:23:10;;;;;;;;;3.00;2.25;;;;;;;;5168011;28;8806;-72
2022/07/28 07:25:42;;;;;;;;;3.00;1.75;;;;;;;;5168055;28;8820;-73
2022/07/28 07:28:13;;;;;;;;;2.25;2.25;;;;;;;;5170071;28;8789;-73
2022/07/28 07:30:48;;;;;;;;;3.50;3.50;;;;;;;;5186293;28;8792;-73
2022/07/28 07:33:19;;;;;;;;;1.00;1.00;;;;;;;;5186416;28;8804;-72
2022/07/28 07:36:09;;;;;;;;;2.00;2.00;;;;;;;;5173595;28;8781;-74
2022/07/28 07:38:40;;;;;;;;;2.25;2.25;;;;;;;;5170703;28;8797;-73
2022/07/28 07:41:12;;;;;;;;;2.00;2.00;;;;;;;;5186415;28;8926;-73
2022/07/28 07:43:43;;;;;;;;;3.75;3.75;;;;;;;;5186433;28;8812;-73
2022/07/28 07:46:15;;;;;;;;;3.75;3.75;;;;;;;;5170585;28;8912;-72
2022/07/28 07:48:46;;;;;;;;;3.00;3.00;;;;;;;;5170390;28;8813;-74
2022/07/28 07:51:17;;;;;;;;;2.00;2.00;;;;;;;;5153297;28;8800;-74
2022/07/28 07:53:49;;;;;;;;;4.50;4.50;;;;;;;;5185960;28;8808;-74
2022/07/28 07:56:21;;;;;;;;;3.75;3.75;;;;;;;;5154459;28;9492;-74
2022/07/28 07:59:11;;;;;;;;;3.25;3.25;;;;;;;;5184315;28;8781;-74
2022/07/28 08:01:42;;;;;;;;;2.50;2.50;;;;;;;;5150308;28;8796;-73
2022/07/28 08:04:13;;;;;;;;;1.00;1.00;;;;;;;;5149705;28;9562;-74
2022/07/28 08:06:44;;;;;;;;;2.50;2.50;;;;;;;;5133916;28;8795;-74
2022/07/28 08:09:15;;;;;;;;;4.00;4.00;;;;;;;;5167261;28;8821;-74
2022/07/28 08:11:46;;;;;;;;;2.75;2.75;;;;;;;;5143665;28;8817;-74
2022/07/28 08:14:17;;;;;;;;;3.00;3.00;;;;;;;;5194589;28;8855;-73
